Time;durP1;ratioP1;P1;durP2;ratioP2;P2;SDS_P1;SDS_P2;PMS_P1;PMS_P2;Temp;Humidity;BMP_temperature;BMP_pressure;BME280_temperature;BME280_humidity;BME280_pressure;Samples;Min_cycle;Max_cycle;Signal;HPM_P1;HPM_P2
2022/12/01 00:00:04;;;;;;;7.10;2.72;;;11.90;99.90;;;;;;5017803;28;20378;-72
2022/12/01 00:02:30;;;;;;;11.90;2.97;;;11.90;99.90;;;;;;5013868;28;20034;-72
2022/12/01 00:04:56;;;;;;;8.52;3.00;;;11.80;99.90;;;;;;4998383;28;20042;-71
2022/12/01 00:07:22;;;;;;;9.00;2.75;;;11.70;99.90;;;;;;5015434;28;20034;-72
2022/12/01 00:12:32;;;;;;;6.68;2.30;;;11.70;99.90;;;;;;5015837;28;20508;-72
2022/12/01 00:14:59;;;;;;;8.95;2.50;;;11.70;99.90;;;;;;5012182;28;20041;-71
2022/12/01 00:17:29;;;;;;;7.60;2.38;;;11.70;99.90;;;;;;5014694;28;20473;-72
2022/12/01 00:19:55;;;;;;;8.38;2.50;;;11.80;99.90;;;;;;5019494;28;20042;-72
2022/12/01 00:22:21;;;;;;;10.23;2.40;;;11.70;99.90;;;;;;5017459;28;20520;-71
2022/12/01 00:24:47;;;;;;;6.47;2.30;;;11.70;99.90;;;;;;5019913;28;20044;-72
2022/12/01 00:27:14;;;;;;;7.47;2.22;;;11.70;99.90;;;;;;5017587;28;20140;-72
2022/12/01 00:29:39;;;;;;;9.00;2.25;;;11.60;99.90;;;;;;5014610;28;20092;-72
2022/12/01 00:32:05;;;;;;;11.40;2.33;;;11.60;99.90;;;;;;5017249;28;20038;-72
2022/12/01 00:34:32;;;;;;;6.18;2.30;;;11.60;99.90;;;;;;5020364;28;20061;-71
2022/12/01 00:36:59;;;;;;;8.05;2.17;;;11.60;99.90;;;;;;5008574;28;20147;-72
2022/12/01 00:39:24;;;;;;;5.43;2.10;;;11.60;99.90;;;;;;5006622;28;20105;-71
2022/12/01 00:41:50;;;;;;;6.55;1.77;;;11.70;99.90;;;;;;5025944;28;20041;-71
2022/12/01 00:44:16;;;;;;;5.35;1.63;;;11.70;99.90;;;;;;5017952;28;20080;-72
2022/12/01 00:46:42;;;;;;;9.57;2.05;;;11.80;99.90;;;;;;5019928;28;20121;-71
2022/12/01 00:49:11;;;;;;;7.55;2.10;;;11.80;99.90;;;;;;5022460;28;20559;-71
2022/12/01 00:51:37;;;;;;;6.88;1.67;;;11.80;99.90;;;;;;5020830;28;20034;-71
2022/12/01 00:54:03;;;;;;;7.45;1.90;;;11.80;99.90;;;;;;5021131;28;20069;-72
2022/12/01 00:56:28;;;;;;;4.70;1.48;;;11.80;99.90;;;;;;5025560;28;20096;-70
2022/12/01 00:58:54;;;;;;;5.68;1.80;;;11.90;99.90;;;;;;5024017;28;20049;-71
2022/12/01 01:01:20;;;;;;;7.15;1.80;;;11.90;99.90;;;;;;5022279;28;20116;-72
2022/12/01 01:03:46;;;;;;;5.65;1.60;;;11.90;99.90;;;;;;5026056;28;20082;-72
2022/12/01 01:06:12;;;;;;;7.38;1.58;;;11.90;99.90;;;;;;5019005;28;20041;-72
2022/12/01 01:08:38;;;;;;;6.80;1.50;;;11.80;99.90;;;;;;5018226;28;20041;-71
2022/12/01 01:11:05;;;;;;;5.97;1.60;;;11.80;99.90;;;;;;5019049;28;20113;-71
2022/12/01 01:13:31;;;;;;;;;;;11.80;99.90;;;;;;5023089;28;20064;-72
2022/12/01 01:16:06;;;;;;;6.53;1.70;;;11.70;99.90;;;;;;5037552;28;19921;-70
2022/12/01 01:18:33;;;;;;;6.60;1.92;;;11.70;99.90;;;;;;5019755;28;20053;-71
2022/12/01 01:21:01;;;;;;;6.03;1.80;;;11.80;99.90;;;;;;5019755;28;20347;-71
2022/12/01 01:23:27;;;;;;;7.03;2.03;;;11.80;99.90;;;;;;5025209;28;20087;-71
2022/12/01 01:25:53;;;;;;;6.00;1.90;;;11.80;99.90;;;;;;5038252;28;20037;-71
2022/12/01 01:28:19;;;;;;;8.13;2.13;;;11.80;99.90;;;;;;5036534;28;20029;-71
2022/12/01 01:30:45;;;;;;;5.68;2.63;;;11.80;99.90;;;;;;5003648;28;20143;-71
2022/12/01 01:33:11;;;;;;;9.80;3.42;;;11.80;99.90;;;;;;5007105;28;20476;-71
2022/12/01 01:35:37;;;;;;;10.15;3.50;;;11.80;99.90;;;;;;5036857;28;20090;-71
2022/12/01 01:38:03;;;;;;;9.68;3.15;;;11.80;99.90;;;;;;5023907;28;20077;-71
2022/12/01 01:40:29;;;;;;;8.57;3.38;;;11.80;99.90;;;;;;5021513;28;20056;-71
2022/12/01 01:42:54;;;;;;;13.40;3.58;;;11.80;99.90;;;;;;5022205;28;20041;-71
2022/12/01 01:45:29;;;;;;;10.82;2.92;;;11.80;99.90;;;;;;5021196;28;20053;-71
2022/12/01 01:47:59;;;;;;;6.97;2.78;;;11.80;99.90;;;;;;5034811;28;20042;-71
2022/12/01 01:50:27;;;;;;;7.22;2.80;;;11.80;99.90;;;;;;5018250;28;20113;-72
2022/12/01 01:53:13;;;;;;;6.88;2.65;;;11.70;99.90;;;;;;5021060;28;20045;-71
2022/12/01 01:55:39;;;;;;;6.57;2.30;;;11.70;99.90;;;;;;5022354;28;20081;-70
2022/12/01 01:58:09;;;;;;;8.52;2.75;;;11.60;99.90;;;;;;5018959;28;20056;-71
2022/12/01 02:00:42;;;;;;;8.30;2.50;;;11.50;99.90;;;;;;5025454;28;20034;-70
2022/12/01 02:03:10;;;;;;;7.93;2.20;;;11.50;99.90;;;;;;5019940;28;20076;-70
2022/12/01 02:05:38;;;;;;;7.15;2.08;;;11.40;99.90;;;;;;5020215;28;20033;-71
2022/12/01 02:08:04;;;;;;;7.82;2.45;;;11.30;99.90;;;;;;5025371;28;20042;-72
2022/12/01 02:11:05;;;;;;;6.97;1.92;;;11.40;99.90;;;;;;5021597;28;20045;-71
2022/12/01 02:13:31;;;;;;;7.97;2.65;;;11.40;99.90;;;;;;5033167;28;20346;-71
2022/12/01 02:16:16;;;;;;;7.07;2.03;;;11.40;99.90;;;;;;5021002;28;20036;-70
2022/12/01 02:18:54;;;;;;;7.57;2.42;;;11.50;99.90;;;;;;5024168;28;20041;-71
2022/12/01 02:21:32;;;;;;;10.02;2.25;;;11.50;99.90;;;;;;5035724;28;20034;-70
2022/12/01 02:24:49;;;;;;;7.78;2.70;;;11.50;99.90;;;;;;5021744;28;20038;-71
2022/12/01 02:27:51;;;;;;;4.97;2.15;;;11.60;99.90;;;;;;4995848;28;20041;-71
2022/12/01 02:30:38;;;;;;;5.80;2.50;;;11.50;99.90;;;;;;5019583;28;20088;-71
2022/12/01 02:33:18;;;;;;;10.02;3.05;;;11.50;99.90;;;;;;5019877;28;20048;-71
2022/12/01 02:36:01;;;;;;;7.18;2.70;;;11.50;99.90;;;;;;5018710;28;20049;-71
2022/12/01 02:38:52;;;;;;;7.05;2.60;;;11.60;99.90;;;;;;5016754;28;20068;-70
2022/12/01 02:41:31;;;;;;;8.70;2.65;;;11.60;99.90;;;;;;5024944;28;20493;-71
2022/12/01 02:44:12;;;;;;;;;;;11.60;99.90;;;;;;5022105;28;20045;-71
2022/12/01 02:46:55;;;;;;;7.30;2.78;;;11.60;99.90;;;;;;5020056;28;19913;-71
2022/12/01 02:49:34;;;;;;;9.68;3.05;;;11.60;99.90;;;;;;5013588;28;21725;-71
2022/12/01 02:52:01;;;;;;;7.43;2.70;;;11.50;99.90;;;;;;5019820;28;20034;-71
2022/12/01 02:54:30;;;;;;;8.13;2.72;;;11.50;99.90;;;;;;5022796;28;20041;-71
2022/12/01 02:56:56;;;;;;;8.95;2.88;;;11.50;99.90;;;;;;5016591;28;20038;-71
2022/12/01 02:59:22;;;;;;;8.90;3.50;;;11.50;99.90;;;;;;5017142;28;20043;-71
2022/12/01 03:01:54;;;;;;;8.40;3.22;;;11.50;99.90;;;;;;5021548;28;20466;-70
2022/12/01 03:04:49;;;;;;;9.25;3.53;;;11.50;99.90;;;;;;5031727;28;20115;-71
2022/12/01 03:07:22;;;;;;;9.20;3.40;;;11.60;99.90;;;;;;5018180;28;20952;-70
2022/12/01 03:10:43;;;;;;;7.38;2.92;;;11.50;99.90;;;;;;5021029;28;20037;-70
2022/12/01 03:13:20;;;;;;;5.90;2.70;;;11.60;99.90;;;;;;5030265;28;20060;-71
2022/12/01 03:16:02;;;;;;;8.77;3.60;;;11.60;99.90;;;;;;5016206;28;21293;-71
2022/12/01 03:18:45;;;;;;;8.15;3.38;;;11.60;99.90;;;;;;5005775;28;20049;-70
2022/12/01 03:21:27;;;;;;;6.63;3.00;;;11.60;99.90;;;;;;5033435;28;20117;-71
2022/12/01 03:24:25;;;;;;;8.63;3.20;;;11.60;99.90;;;;;;5017706;28;20045;-70
2022/12/01 03:26:55;;;;;;;9.30;3.45;;;11.60;99.90;;;;;;5020550;28;20133;-71
2022/12/01 03:29:30;;;;;;;10.07;3.17;;;11.60;99.90;;;;;;5021009;28;20187;-71
2022/12/01 03:32:05;;;;;;;6.05;2.85;;;11.60;99.90;;;;;;5023295;28;20052;-72
2022/12/01 03:34:52;;;;;;;10.40;3.53;;;11.60;99.90;;;;;;5018427;28;20160;-71
2022/12/01 03:37:47;;;;;;;8.82;3.00;;;11.50;99.90;;;;;;5013750;28;20152;-70
2022/12/01 03:40:18;;;;;;;8.40;2.90;;;11.60;99.90;;;;;;5004805;28;20148;-71
2022/12/01 03:42:51;;;;;;;7.45;2.90;;;11.60;99.90;;;;;;5021210;28;20038;-71
2022/12/01 03:45:25;;;;;;;6.80;2.60;;;11.50;99.90;;;;;;5016357;28;20121;-70
2022/12/01 03:47:53;;;;;;;9.95;3.47;;;11.50;99.90;;;;;;5018182;28;20034;-71
2022/12/01 03:50:19;;;;;;;8.43;3.20;;;11.50;99.90;;;;;;5015663;28;20125;-71
2022/12/01 03:53:18;;;;;;;6.45;3.45;;;11.50;99.90;;;;;;5017382;28;20041;-71
2022/12/01 03:55:50;;;;;;;12.07;4.15;;;11.40;99.90;;;;;;5016890;28;20045;-70
2022/12/01 03:58:24;;;;;;;11.18;4.82;;;11.40;99.90;;;;;;5017145;28;20444;-71
2022/12/01 04:00:54;;;;;;;8.77;4.22;;;11.40;99.90;;;;;;5023109;28;20493;-71
2022/12/01 04:03:24;;;;;;;11.27;4.18;;;11.40;99.90;;;;;;5020487;28;20124;-71
2022/12/01 04:05:50;;;;;;;8.90;4.00;;;11.40;99.90;;;;;;5018867;28;20038;-71
2022/12/01 04:08:16;;;;;;;10.35;4.15;;;11.30;99.90;;;;;;5016327;28;20042;-71
2022/12/01 04:10:42;;;;;;;12.90;4.70;;;11.40;99.90;;;;;;5014809;28;20041;-71
2022/12/01 04:13:15;;;;;;;10.15;4.85;;;11.30;99.90;;;;;;5020777;28;20037;-71
2022/12/01 04:15:41;;;;;;;;;;;11.30;99.90;;;;;;5022168;28;20071;-70
2022/12/01 04:18:07;;;;;;;8.00;4.38;;;11.30;99.90;;;;;;5021766;28;20237;-71
2022/12/01 04:20:33;;;;;;;10.23;4.53;;;11.30;99.90;;;;;;5021494;28;20034;-72
2022/12/01 04:22:59;;;;;;;11.05;4.15;;;11.30;99.90;;;;;;5027050;28;20037;-72
2022/12/01 04:25:25;;;;;;;8.93;3.80;;;11.30;99.90;;;;;;5023954;28;20026;-72
2022/12/01 04:27:51;;;;;;;10.20;3.92;;;11.30;99.90;;;;;;5023773;28;20067;-71
2022/12/01 04:30:17;;;;;;;7.82;3.67;;;11.30;99.90;;;;;;5020607;28;20177;-70
2022/12/01 04:32:43;;;;;;;7.68;4.35;;;11.30;99.90;;;;;;5028575;28;20497;-72
2022/12/01 04:35:10;;;;;;;9.90;4.28;;;11.30;99.90;;;;;;5026174;28;20115;-71
2022/12/01 04:37:36;;;;;;;;;;;11.40;99.90;;;;;;5017128;28;20620;-71
2022/12/01 04:40:02;;;;;;;10.00;4.03;;;11.30;99.90;;;;;;5019403;28;19963;-72
2022/12/01 04:42:29;;;;;;;9.57;5.03;;;11.30;99.90;;;;;;5024155;28;20404;-71
2022/12/01 04:44:54;;;;;;;10.38;4.68;;;11.30;99.90;;;;;;5021271;28;20033;-70
2022/12/01 04:47:20;;;;;;;10.75;4.03;;;11.30;99.90;;;;;;5007544;28;20041;-71
2022/12/01 04:49:46;;;;;;;9.30;4.40;;;11.30;99.90;;;;;;5023733;28;20136;-70
2022/12/01 04:52:12;;;;;;;9.48;3.97;;;11.30;99.90;;;;;;5025303;28;20037;-71
2022/12/01 04:54:38;;;;;;;10.85;4.43;;;11.20;99.90;;;;;;5022356;28;20035;-70
2022/12/01 04:57:04;;;;;;;9.48;3.90;;;11.20;99.90;;;;;;5022850;28;20025;-71
2022/12/01 04:59:29;;;;;;;8.13;3.60;;;11.20;99.90;;;;;;5019545;28;20520;-71
2022/12/01 05:01:55;;;;;;;9.23;3.80;;;11.20;99.90;;;;;;5022094;28;20119;-71
2022/12/01 05:04:21;;;;;;;8.00;4.03;;;11.20;99.90;;;;;;5017041;28;20045;-70
2022/12/01 05:06:47;;;;;;;9.75;4.45;;;11.20;99.90;;;;;;5021548;28;20087;-71
2022/12/01 05:09:14;;;;;;;11.07;4.18;;;11.10;99.90;;;;;;5023102;28;20116;-70
2022/12/01 05:11:40;;;;;;;8.57;3.95;;;11.10;99.90;;;;;;5022826;28;20041;-71
2022/12/01 05:14:06;;;;;;;9.38;4.22;;;11.10;99.90;;;;;;5020711;28;20033;-71
2022/12/01 05:16:32;;;;;;;7.40;4.00;;;11.10;99.90;;;;;;5017841;28;20056;-71
2022/12/01 05:21:49;;;;;;;9.82;4.03;;;10.90;99.90;;;;;;5008236;28;20060;-71
2022/12/01 05:24:16;;;;;;;;;;;10.90;99.90;;;;;;5021328;28;20037;-71
2022/12/01 05:26:42;;;;;;;7.07;3.47;;;10.90;99.90;;;;;;5023803;28;19913;-71
2022/12/01 05:29:09;;;;;;;8.80;4.28;;;10.90;99.90;;;;;;5038036;28;20370;-71
2022/12/01 05:31:35;;;;;;;9.68;3.85;;;10.90;99.90;;;;;;5022284;28;20087;-71
2022/12/01 05:34:02;;;;;;;8.50;4.10;;;10.90;99.90;;;;;;5018720;28;20069;-70
2022/12/01 05:36:28;;;;;;;9.43;4.05;;;10.90;99.90;;;;;;5032686;28;20033;-70
2022/12/01 05:38:54;;;;;;;9.00;3.47;;;10.90;99.90;;;;;;5018131;28;20489;-71
2022/12/01 05:41:20;;;;;;;8.95;3.75;;;10.90;99.90;;;;;;5019360;28;20065;-70
2022/12/01 05:43:45;;;;;;;8.40;3.58;;;10.90;99.90;;;;;;5016054;28;20509;-71
2022/12/01 05:46:11;;;;;;;8.35;4.63;;;10.90;99.90;;;;;;5020832;28;20378;-70
2022/12/01 05:48:37;;;;;;;7.95;4.15;;;10.90;99.90;;;;;;5019711;28;20117;-71
2022/12/01 05:51:08;;;;;;;7.68;3.42;;;10.90;99.90;;;;;;5017039;28;20179;-71
2022/12/01 05:53:34;;;;;;;10.95;4.45;;;10.90;99.90;;;;;;5023524;28;20040;-71
2022/12/01 05:55:59;;;;;;;8.07;3.67;;;10.90;99.90;;;;;;5019358;28;20034;-71
2022/12/01 05:58:25;;;;;;;7.18;3.30;;;10.90;99.90;;;;;;5024171;28;20183;-70
2022/12/01 06:00:51;;;;;;;6.70;4.00;;;10.90;99.90;;;;;;5018432;28;20057;-71
2022/12/01 06:03:16;;;;;;;8.07;3.97;;;11.00;99.90;;;;;;5022955;28;20652;-71
2022/12/01 06:05:42;;;;;;;8.93;3.58;;;11.00;99.90;;;;;;5024882;28;20111;-70
2022/12/01 06:08:08;;;;;;;7.28;2.70;;;11.10;99.90;;;;;;5020036;28;20073;-70
2022/12/01 06:10:34;;;;;;;5.93;3.15;;;11.10;99.90;;;;;;5019180;28;20029;-70
2022/12/01 06:13:00;;;;;;;7.75;3.47;;;11.10;99.90;;;;;;5020360;28;20041;-71
2022/12/01 06:15:26;;;;;;;6.65;3.10;;;11.10;99.90;;;;;;5025737;28;20493;-71
2022/12/01 06:17:52;;;;;;;12.15;5.80;;;11.20;99.90;;;;;;5023371;28;20037;-69
2022/12/01 06:20:17;;;;;;;6.60;2.72;;;11.20;99.90;;;;;;5018819;28;20072;-71
2022/12/01 06:22:43;;;;;;;8.77;3.63;;;11.20;99.90;;;;;;5023257;28;20539;-70
2022/12/01 06:25:09;;;;;;;7.68;2.83;;;11.20;99.90;;;;;;5034444;28;20030;-70
2022/12/01 06:27:35;;;;;;;6.65;2.60;;;11.30;99.90;;;;;;5022110;28;20480;-71
2022/12/01 06:30:02;;;;;;;7.53;3.35;;;11.30;99.90;;;;;;5019622;28;20037;-71
2022/12/01 06:32:28;;;;;;;7.97;3.40;;;11.30;99.90;;;;;;5018358;28;20551;-71
2022/12/01 06:34:53;;;;;;;7.32;3.30;;;11.30;99.90;;;;;;5022052;28;20050;-71
2022/12/01 06:37:19;;;;;;;9.52;3.92;;;11.30;99.90;;;;;;5023916;28;20445;-71
2022/12/01 06:39:45;;;;;;;11.43;3.55;;;11.30;99.90;;;;;;5002365;28;20057;-71
2022/12/01 06:42:11;;;;;;;8.40;4.03;;;11.30;99.90;;;;;;5015588;28;20126;-70
2022/12/01 06:44:37;;;;;;;8.10;3.58;;;11.30;99.90;;;;;;5015338;28;20029;-71
2022/12/01 06:47:03;;;;;;;7.05;3.42;;;11.30;99.90;;;;;;5018311;28;20121;-72
2022/12/01 06:49:29;;;;;;;10.00;3.92;;;11.30;99.90;;;;;;5025830;28;20119;-71
2022/12/01 06:51:55;;;;;;;7.60;3.85;;;11.30;99.90;;;;;;5000181;28;20129;-71
2022/12/01 06:54:21;;;;;;;9.10;4.20;;;11.30;99.90;;;;;;5017074;28;20029;-71
2022/12/01 06:56:46;;;;;;;9.57;4.68;;;11.30;99.90;;;;;;5018895;28;20108;-71
2022/12/01 06:59:12;;;;;;;10.38;4.55;;;11.30;99.90;;;;;;5014729;28;20158;-71
2022/12/01 07:01:38;;;;;;;9.13;4.25;;;11.30;99.90;;;;;;5019117;28;20052;-71
2022/12/01 07:04:04;;;;;;;12.98;4.88;;;11.30;99.90;;;;;;5019204;28;20099;-70
2022/12/01 07:06:30;;;;;;;9.93;4.47;;;11.30;99.90;;;;;;5020548;28;20049;-72
2022/12/01 07:08:56;;;;;;;11.68;5.38;;;11.20;99.90;;;;;;5023170;28;20057;-70
2022/12/01 07:11:22;;;;;;;8.70;4.45;;;11.30;99.90;;;;;;5019419;28;20041;-71
2022/12/01 07:13:50;;;;;;;11.77;5.53;;;11.30;99.90;;;;;;5025618;28;20463;-71
2022/12/01 07:16:16;;;;;;;10.65;4.85;;;11.30;99.90;;;;;;5019628;28;20096;-72
2022/12/01 07:18:43;;;;;;;10.90;4.30;;;11.30;99.90;;;;;;5014225;28;20046;-71
2022/12/01 07:21:12;;;;;;;7.60;4.50;;;11.30;99.90;;;;;;5019879;28;20107;-70
2022/12/01 07:23:38;;;;;;;10.85;4.53;;;11.30;99.90;;;;;;5026020;28;20037;-70
2022/12/01 07:26:13;;;;;;;8.88;5.32;;;11.30;99.90;;;;;;5015977;28;20752;-72
2022/12/01 07:28:39;;;;;;;10.32;3.88;;;11.30;99.90;;;;;;5017007;28;20129;-71
2022/12/01 07:31:14;;;;;;;9.85;4.68;;;11.40;99.90;;;;;;5020534;28;20037;-71
2022/12/01 07:33:40;;;;;;;8.95;4.32;;;11.40;99.90;;;;;;5017909;28;20065;-71
2022/12/01 07:36:07;;;;;;;9.88;5.00;;;11.40;99.90;;;;;;5022896;28;20026;-70
2022/12/01 07:38:34;;;;;;;9.48;4.70;;;11.40;99.90;;;;;;5021457;28;20460;-72
2022/12/01 07:41:11;;;;;;;11.93;4.70;;;11.40;99.90;;;;;;5020768;28;20041;-70
2022/12/01 07:43:38;;;;;;;9.68;3.70;;;11.40;99.90;;;;;;5019915;28;20042;-72
2022/12/01 07:46:13;;;;;;;8.43;4.53;;;11.50;99.90;;;;;;5018418;28;20405;-72
2022/12/01 07:48:40;;;;;;;8.23;4.10;;;11.50;99.90;;;;;;5017310;28;20137;-71
2022/12/01 07:51:07;;;;;;;7.50;3.67;;;11.50;99.90;;;;;;5033803;28;20040;-70
2022/12/01 07:53:33;;;;;;;7.43;3.80;;;11.50;99.90;;;;;;5019277;28;20033;-72
2022/12/01 07:56:00;;;;;;;9.30;3.35;;;11.60;99.90;;;;;;5021632;28;20026;-71
2022/12/01 07:58:26;;;;;;;7.50;3.60;;;11.60;99.90;;;;;;5020345;28;20045;-71
2022/12/01 08:00:52;;;;;;;9.50;4.43;;;11.60;99.90;;;;;;5022076;28;20438;-72
2022/12/01 08:03:19;;;;;;;9.68;3.72;;;11.70;99.90;;;;;;5018070;28;20053;-71
2022/12/01 08:05:44;;;;;;;9.80;4.00;;;11.70;99.90;;;;;;5009777;28;20046;-72
2022/12/01 08:08:11;;;;;;;8.10;3.40;;;11.70;99.90;;;;;;5024321;28;20140;-73
2022/12/01 08:10:36;;;;;;;6.63;3.10;;;11.70;99.90;;;;;;5018820;28;20903;-72
2022/12/01 08:13:03;;;;;;;7.63;3.60;;;11.80;99.90;;;;;;5017078;28;20041;-70
2022/12/01 08:15:28;;;;;;;7.15;3.53;;;11.80;99.90;;;;;;5021488;28;20152;-72
2022/12/01 08:17:54;;;;;;;7.72;3.58;;;11.80;99.90;;;;;;5030498;28;20740;-71
2022/12/01 08:20:20;;;;;;;6.88;3.13;;;11.90;99.90;;;;;;5018826;28;20079;-72
2022/12/01 08:22:46;;;;;;;6.30;2.72;;;11.90;99.90;;;;;;5018608;28;20038;-72
2022/12/01 08:25:12;;;;;;;6.55;2.80;;;12.00;99.90;;;;;;5032038;28;20073;-70
2022/12/01 08:27:38;;;;;;;8.35;2.80;;;12.00;99.90;;;;;;5018460;28;20117;-70
2022/12/01 08:30:04;;;;;;;6.03;2.83;;;12.10;99.90;;;;;;5016452;28;20049;-72
2022/12/01 08:32:30;;;;;;;7.70;3.10;;;12.20;99.90;;;;;;5017448;28;20053;-72
2022/12/01 08:34:55;;;;;;;8.27;2.90;;;12.20;99.90;;;;;;5005917;28;20041;-71
2022/12/01 08:37:21;;;;;;;7.82;2.85;;;12.40;99.90;;;;;;5021579;28;25385;-71
2022/12/01 08:39:47;;;;;;;7.85;3.63;;;12.50;99.90;;;;;;5018882;28;20035;-71
2022/12/01 08:42:12;;;;;;;41.58;20.77;;;14.20;99.90;;;;;;5024310;28;20511;-72
2022/12/01 08:44:38;;;;;;;9.88;3.80;;;14.30;99.90;;;;;;5021141;28;20062;-71
2022/12/01 08:47:05;;;;;;;9.05;3.28;;;14.10;99.90;;;;;;5015771;28;20034;-71
2022/12/01 08:49:31;;;;;;;6.72;2.80;;;14.00;99.90;;;;;;5018514;28;20026;-72
2022/12/01 08:51:56;;;;;;;7.78;2.95;;;13.80;99.90;;;;;;5016494;28;20037;-72
2022/12/01 08:54:22;;;;;;;5.95;2.90;;;13.60;99.90;;;;;;5018023;28;20074;-72
2022/12/01 08:56:48;;;;;;;7.03;3.00;;;13.40;99.90;;;;;;5018422;28;20045;-71
2022/12/01 08:59:14;;;;;;;6.32;3.40;;;13.40;99.90;;;;;;5012676;28;20050;-72
2022/12/01 09:01:52;;;;;;;6.90;2.90;;;13.30;99.90;;;;;;5016009;28;20061;-71
2022/12/01 09:04:24;;;;;;;5.72;2.40;;;13.20;99.90;;;;;;5018962;28;20057;-72
2022/12/01 09:06:52;;;;;;;6.50;2.65;;;13.20;99.90;;;;;;5026980;28;20030;-73
2022/12/01 09:09:22;;;;;;;6.28;2.45;;;13.10;99.90;;;;;;5020794;28;20075;-71
2022/12/01 09:11:51;;;;;;;5.63;2.38;;;12.90;99.90;;;;;;5024217;28;20087;-71
2022/12/01 09:14:18;;;;;;;5.32;2.38;;;12.90;99.90;;;;;;5024423;28;20034;-72
2022/12/01 09:16:46;;;;;;;7.25;2.47;;;12.90;99.90;;;;;;5019239;28;20756;-71
2022/12/01 09:19:13;;;;;;;5.93;2.22;;;12.90;99.90;;;;;;5017257;28;20061;-71
2022/12/01 09:21:41;;;;;;;4.82;2.33;;;12.90;99.90;;;;;;5015589;28;20053;-71
2022/12/01 09:24:09;;;;;;;6.85;2.53;;;12.80;99.90;;;;;;5019166;28;20049;-71
2022/12/01 09:26:35;;;;;;;5.78;2.40;;;12.80;99.90;;;;;;5018585;28;20026;-72
2022/12/01 09:29:06;;;;;;;4.57;2.33;;;12.80;99.90;;;;;;5023985;28;20555;-72
2022/12/01 09:31:33;;;;;;;6.30;2.20;;;12.90;99.90;;;;;;5036542;28;20042;-72
2022/12/01 09:34:01;;;;;;;9.02;2.50;;;12.90;99.90;;;;;;5002393;28;20061;-71
2022/12/01 09:36:28;;;;;;;5.32;2.25;;;12.90;99.90;;;;;;5020417;28;20084;-72
2022/12/01 09:38:54;;;;;;;6.90;2.55;;;12.90;99.90;;;;;;5020142;28;20053;-72
2022/12/01 09:41:31;;;;;;;5.03;2.40;;;13.00;99.90;;;;;;5020552;28;20091;-72
2022/12/01 09:44:00;;;;;;;6.45;2.55;;;13.10;99.90;;;;;;5037044;28;20144;-71
2022/12/01 09:46:34;;;;;;;6.00;3.13;;;13.10;99.90;;;;;;5013003;28;20041;-71
2022/12/01 09:49:03;;;;;;;8.23;2.78;;;13.10;99.90;;;;;;5013331;28;20121;-72
2022/12/01 09:51:29;;;;;;;7.53;2.85;;;13.20;99.90;;;;;;5005352;28;20568;-70
2022/12/01 09:53:58;;;;;;;6.32;3.10;;;13.20;99.90;;;;;;5022389;28;20489;-72
2022/12/01 09:56:42;;;;;;;8.32;2.90;;;13.20;99.90;;;;;;5020152;28;20072;-72
2022/12/01 09:59:21;;;;;;;4.43;1.92;;;13.20;99.90;;;;;;5024978;28;20049;-73
2022/12/01 10:01:52;;;;;;;5.28;2.45;;;13.20;99.90;;;;;;5010706;28;20048;-72
2022/12/01 10:04:30;;;;;;;4.95;2.42;;;13.30;99.90;;;;;;5019020;28;20029;-71
2022/12/01 10:07:25;;;;;;;9.55;2.80;;;13.50;99.90;;;;;;5013200;28;21447;-71
2022/12/01 10:10:01;;;;;;;6.55;2.30;;;13.50;99.90;;;;;;5013291;28;20064;-70
2022/12/01 10:12:31;;;;;;;5.47;2.40;;;13.70;99.90;;;;;;5014137;28;20042;-71
2022/12/01 10:15:25;;;;;;;6.90;2.28;;;13.90;99.90;;;;;;5023874;28;20061;-71
2022/12/01 10:18:05;;;;;;;7.05;2.10;;;14.20;99.90;;;;;;5019807;28;20044;-70
2022/12/01 10:20:43;;;;;;;8.30;2.08;;;14.60;99.90;;;;;;5017205;28;20040;-71
2022/12/01 10:23:24;;;;;;;5.68;1.90;;;15.10;99.70;;;;;;5022026;28;20048;-72
2022/12/01 10:25:57;;;;;;;4.70;2.75;;;15.60;98.90;;;;;;5018648;28;20397;-71
2022/12/01 10:28:35;;;;;;;5.93;2.40;;;16.70;97.80;;;;;;5019116;28;20117;-71
2022/12/01 10:31:18;;;;;;;5.63;2.78;;;16.60;97.20;;;;;;5015629;28;20363;-71
2022/12/01 10:34:18;;;;;;;6.45;2.38;;;16.70;97.00;;;;;;5019340;28;20179;-71
2022/12/01 10:36:44;;;;;;;20.48;4.13;;;16.60;96.70;;;;;;5020529;28;20473;-71
2022/12/01 10:39:27;;;;;;;7.63;2.80;;;16.60;96.80;;;;;;5018536;28;20045;-71
2022/12/01 10:42:20;;;;;;;4.63;2.10;;;16.40;96.20;;;;;;5018951;28;20112;-72
2022/12/01 10:44:47;;;;;;;4.32;2.10;;;16.20;96.30;;;;;;5009931;28;20092;-71
2022/12/01 10:47:24;;;;;;;4.05;1.80;;;16.20;96.70;;;;;;5017416;28;20269;-71
2022/12/01 10:49:51;;;;;;;5.60;2.22;;;16.20;96.60;;;;;;5018151;28;20401;-71
2022/12/01 10:52:34;;;;;;;5.55;2.58;;;16.40;96.40;;;;;;5015947;28;20121;-72
2022/12/01 10:55:01;;;;;;;4.78;2.00;;;16.40;96.40;;;;;;5023320;28;20034;-71
2022/12/01 10:57:29;;;;;;;6.53;2.22;;;16.50;96.20;;;;;;5018232;28;20096;-71
2022/12/01 11:00:05;;;;;;;5.85;2.15;;;16.40;96.30;;;;;;5024860;28;20052;-70
2022/12/01 11:02:31;;;;;;;5.57;2.45;;;16.60;96.30;;;;;;5015821;28;20052;-70
2022/12/01 11:05:04;;;;;;;5.28;2.67;;;17.40;96.10;;;;;;5012984;28;20061;-71
2022/12/01 11:07:42;;;;;;;8.73;3.25;;;17.40;95.60;;;;;;5014447;28;20366;-70
2022/12/01 11:10:22;;;;;;;6.68;3.33;;;17.60;95.40;;;;;;5010999;28;20034;-71
2022/12/01 11:13:03;;;;;;;4.68;2.40;;;18.40;95.10;;;;;;5015439;28;20034;-71
2022/12/01 11:15:32;;;;;;;5.95;2.97;;;19.50;93.80;;;;;;5015777;28;20048;-75
2022/12/01 11:18:18;;;;;;;8.40;2.95;;;19.90;93.30;;;;;;5010926;28;20034;-71
2022/12/01 11:20:44;;;;;;;7.57;2.78;;;19.70;92.70;;;;;;5015183;28;20561;-71
2022/12/01 11:23:23;;;;;;;6.80;2.95;;;20.40;92.40;;;;;;5015370;28;20038;-72
2022/12/01 11:26:12;;;;;;;6.43;3.00;;;21.00;92.20;;;;;;5017545;28;20033;-71
2022/12/01 11:28:50;;;;;;;8.82;2.58;;;21.80;91.10;;;;;;5015726;28;20037;-71
2022/12/01 11:31:17;;;;;;;7.30;3.00;;;20.00;91.20;;;;;;5012227;28;20040;-71
2022/12/01 11:33:51;;;;;;;5.10;2.70;;;18.80;92.20;;;;;;5002963;28;20041;-71
2022/12/01 11:36:42;;;;;;;6.50;2.72;;;18.00;92.80;;;;;;5016414;28;20033;-71
2022/12/01 11:39:31;;;;;;;5.95;2.50;;;17.60;93.50;;;;;;5013807;28;20140;-72
2022/12/01 11:42:00;;;;;;;7.80;3.20;;;17.70;93.60;;;;;;5015541;28;20137;-71
2022/12/01 11:44:27;;;;;;;9.05;2.25;;;18.10;93.40;;;;;;5013425;28;20048;-71
2022/12/01 11:46:53;;;;;;;6.22;2.97;;;18.30;92.90;;;;;;5010624;28;20116;-71
2022/12/01 11:49:27;;;;;;;6.78;2.75;;;17.40;93.10;;;;;;5017213;28;20132;-72
2022/12/01 11:51:53;;;;;;;5.90;3.08;;;17.00;93.80;;;;;;5013338;28;20048;-72
2022/12/01 11:54:25;;;;;;;6.88;2.95;;;19.30;93.10;;;;;;5012221;28;20042;-71
2022/12/01 11:56:53;;;;;;;5.47;2.55;;;20.90;91.70;;;;;;5012865;28;20122;-71
2022/12/01 11:59:24;;;;;;;5.68;2.72;;;21.90;90.60;;;;;;5028474;28;20065;-71
2022/12/01 12:02:11;;;;;;;5.53;3.75;;;22.70;88.80;;;;;;5017181;28;20390;-71
2022/12/01 12:04:45;;;;;;;6.43;2.60;;;23.10;87.30;;;;;;5012320;28;20124;-71
2022/12/01 12:07:32;;;;;;;7.85;2.83;;;23.70;87.10;;;;;;5015283;28;21051;-71
2022/12/01 12:10:01;;;;;;;5.15;2.90;;;24.10;86.10;;;;;;5008918;28;20595;-71
2022/12/01 12:12:39;;;;;;;5.32;2.63;;;24.10;85.00;;;;;;5013888;28;20032;-72
2022/12/01 12:15:32;;;;;;;5.70;3.08;;;23.60;85.70;;;;;;5014451;28;20504;-72
2022/12/01 12:18:10;;;;;;;7.00;3.05;;;24.30;85.10;;;;;;5030844;28;20048;-71
2022/12/01 12:20:50;;;;;;;8.93;3.35;;;24.90;84.00;;;;;;5011979;28;20116;-71
2022/12/01 12:23:25;;;;;;;6.82;3.38;;;25.40;82.90;;;;;;5017973;28;20038;-70
2022/12/01 12:25:51;;;;;;;5.93;3.22;;;23.60;82.70;;;;;;5017885;28;20646;-71
2022/12/01 12:28:24;;;;;;;5.72;3.25;;;21.80;85.50;;;;;;5021098;28;20390;-71
2022/12/01 12:31:05;;;;;;;6.78;2.83;;;21.10;86.80;;;;;;5012366;28;20034;-72
2022/12/01 12:33:33;;;;;;;6.47;2.75;;;19.90;88.50;;;;;;5018125;28;20026;-73
2022/12/01 12:36:28;;;;;;;7.07;3.00;;;19.40;90.20;;;;;;5019831;28;20113;-74
2022/12/01 12:39:23;;;;;;;5.85;2.60;;;19.00;90.70;;;;;;5017452;28;20438;-75
2022/12/01 12:41:53;;;;;;;7.43;3.22;;;18.60;91.30;;;;;;5009326;28;20045;-75
2022/12/01 12:44:56;;;;;;;5.88;3.00;;;18.20;91.60;;;;;;5020036;28;21067;-72
2022/12/01 12:47:46;;;;;;;5.22;2.40;;;18.20;92.00;;;;;;5020860;28;20781;-75
2022/12/01 12:50:25;;;;;;;6.35;2.63;;;18.00;92.20;;;;;;5019849;28;20069;-75
2022/12/01 12:52:57;;;;;;;6.20;2.30;;;17.80;92.60;;;;;;5020062;28;20489;-73
2022/12/01 12:55:37;;;;;;;5.13;2.53;;;17.50;92.80;;;;;;5020443;28;20049;-74
2022/12/01 12:58:22;;;;;;;7.07;2.30;;;17.20;93.20;;;;;;5024011;28;20669;-74
2022/12/01 13:01:01;;;;;;;4.63;1.65;;;16.90;93.90;;;;;;5028780;28;20036;-75
2022/12/01 13:03:41;;;;;;;5.43;2.22;;;16.70;94.40;;;;;;5026514;28;20044;-77
2022/12/01 13:06:13;;;;;;;4.70;2.25;;;16.20;94.30;;;;;;5020765;28;20583;-75
2022/12/01 13:08:47;;;;;;;5.55;2.15;;;16.10;94.90;;;;;;5021730;28;20044;-73
2022/12/01 13:11:33;;;;;;;5.78;2.40;;;16.20;95.10;;;;;;5016450;28;20103;-74
2022/12/01 13:14:05;;;;;;;7.03;2.22;;;16.00;95.30;;;;;;5026788;28;20063;-74